ADDS METAR Data INFO
IDs: Format: Raw Decoded Include TAF

Data at: 0222 UTC 21 Nov 2017

EGBB 210150Z AUTO 21006KT 160V260 9999 FEW006/// BKN012/// OVC016/// 12/12 Q1010

No METAR found for EGBE

No METAR found for EGBJ

EGVN 210150Z 25009KT 9999 OVC007 12/11 Q1012 GRN NOSIG

EGTK 202220Z 24015KT 9999 BKN010 12/11 Q1012

No METAR found for EGWC